Etusivu
METAR-TAF:

METAR-TAF

Lentoasemat :

Santiago de Cuba, Kuuba

Leveyspiiri: 19-58N, Pituuspiiri: 075-51W, korkeus merenpinnasta: 69 m

Tämänhetkinen sää

Tämä raportti tehtiin 24 minuuttia sitten, kello 14.51 UTC
Tuuli 8 kn etelästä/kaakosta
Lämpötila 31°C
Kosteus 66%
Ilmanpaine 1017 hPa
Näkyvyys: 9000 m
Muutamia pilviä 2000 ft:n korkeudessa, Kasvava cumulus-pilvi.

METAR: MUCU 061451Z 15008KT 9000 FEW020TCU 31/24 Q1017

Aika: 11:15 (15:15 UTC)

Sääennuste

Tämä raportti tehtiin 4 tuntia ja 15 minuuttia sitten, kello 11.00 UTC
Ennuste voimassa 06. päivästä klo 12 UTC - 07. päivään klo 12 UTC
Tuuli 3 kn eri suunnista
Näkyvyys: 9000 m
Hajanaisia pilviä 2000 ft:n korkeudessa
Tulossa
06. päivästä klo 15 UTC - 06. päivään klo 17 UTC
Tuuli 8 kn etelästä
Tulossa
07. päivästä klo 01 UTC - 07. päivään klo 03 UTC
Tuuli 3 kn eri suunnista

TAF: MUCU 061100Z 0612/0712 VRB03KT 9000 SCT020 BECMG 0615/0617 18008KT BECMG 0701/0703 VRB03KT

Säähavainnot ja -ennusteet yli 4000 lentoasemalta (METAR- ja TAF-raportit).

Käytössä olevat sääasemat on merkitty karttaan keltaisilla ja punaisilla pisteillä.

Aseta hiiri pisteen päälle nähdäksesi sääaseman nimen.

Klikkaa sitten nähdäksesi säähavainnot ja -ennusteet.

Kartan vaihtaminen: klikkaa mustalla rastilla varustettuja vihreitä pisteitä, niin voit zoomata sisään; viivalla varustettua vihreää pistettä, niin voit zoomata ulos tai vihreitä nuolia, niin pääset viereisille kartoille.


METAR-TAF: